Time;durP1;ratioP1;P1;durP2;ratioP2;P2;SDS_P1;SDS_P2;PMS_P1;PMS_P2;Temp;Humidity;BMP_temperature;BMP_pressure;BME280_temperature;BME280_humidity;BME280_pressure;Samples;Min_cycle;Max_cycle;Signal;HPM_P1;HPM_P2
2023/12/03 00:02:25;;;;;;;7.38;5.65;;;4.20;62.60;;;;;;4975224;28;20030;-87
2023/12/03 00:04:53;;;;;;;5.80;5.00;;;4.30;62.80;;;;;;4984664;28;20188;-86
2023/12/03 00:07:21;;;;;;;7.75;5.30;;;4.30;62.90;;;;;;4991443;28;20025;-85
2023/12/03 00:09:51;;;;;;;6.05;4.78;;;4.30;62.90;;;;;;4972013;28;20173;-85
2023/12/03 00:12:18;;;;;;;8.10;4.80;;;4.30;62.90;;;;;;4987540;28;20032;-86
2023/12/03 00:14:46;;;;;;;5.53;4.47;;;4.40;63.10;;;;;;4972139;28;20468;-85
2023/12/03 00:17:13;;;;;;;5.25;4.15;;;4.40;63.20;;;;;;4989235;28;20042;-86
2023/12/03 00:19:41;;;;;;;6.10;4.32;;;4.40;63.20;;;;;;4991290;28;20069;-86
2023/12/03 00:22:08;;;;;;;6.15;3.10;;;4.50;63.40;;;;;;4979801;28;20322;-86
2023/12/03 00:24:35;;;;;;;6.10;3.25;;;4.50;63.40;;;;;;4961928;28;20444;-86
2023/12/03 00:27:05;;;;;;;4.00;3.30;;;4.60;63.70;;;;;;4992155;28;20254;-86
2023/12/03 00:29:32;;;;;;;5.05;3.40;;;4.60;63.70;;;;;;4991065;28;20027;-87
2023/12/03 00:31:59;;;;;;;5.68;3.75;;;4.60;63.70;;;;;;4978198;28;20046;-86
2023/12/03 00:34:25;;;;;;;4.10;3.13;;;4.60;63.80;;;;;;4978879;28;20129;-87
2023/12/03 00:36:52;;;;;;;5.72;3.30;;;4.60;63.80;;;;;;4973038;28;20043;-87
2023/12/03 00:39:18;;;;;;;3.90;2.90;;;4.70;64.00;;;;;;4975408;28;20022;-88
2023/12/03 00:41:44;;;;;;;4.30;3.00;;;4.70;64.00;;;;;;4958179;28;20034;-86
2023/12/03 00:44:12;;;;;;;5.75;2.92;;;4.70;64.10;;;;;;4990762;28;20034;-88
2023/12/03 00:46:38;;;;;;;3.72;2.85;;;4.80;64.30;;;;;;4976400;28;20109;-86
2023/12/03 00:49:06;;;;;;;5.70;3.08;;;4.80;64.30;;;;;;5006557;28;20485;-87
2023/12/03 00:51:32;;;;;;;4.22;2.65;;;4.80;64.40;;;;;;5007657;28;20034;-88
2023/12/03 00:53:59;;;;;;;3.85;2.53;;;4.80;64.40;;;;;;4994281;28;20049;-83
2023/12/03 00:56:25;;;;;;;4.05;2.17;;;4.80;64.40;;;;;;5010508;28;20025;-88
2023/12/03 00:58:52;;;;;;;4.00;2.33;;;4.90;64.60;;;;;;5018564;28;20025;-87
2023/12/03 01:01:20;;;;;;;4.95;2.55;;;4.90;64.70;;;;;;5013535;28;20050;-87
2023/12/03 01:03:52;;;;;;;4.10;2.40;;;4.90;64.70;;;;;;5016197;28;20064;-89
2023/12/03 01:06:19;;;;;;;2.92;2.10;;;4.90;64.80;;;;;;5008275;28;20022;-89
2023/12/03 01:08:46;;;;;;;4.60;2.45;;;5.00;65.00;;;;;;4998786;28;20033;-88
2023/12/03 01:11:12;;;;;;;2.83;2.25;;;5.00;65.00;;;;;;5018583;28;20034;-88
2023/12/03 01:13:39;;;;;;;3.20;2.17;;;5.00;65.00;;;;;;5016026;28;20018;-87
2023/12/03 01:16:16;;;;;;;3.75;2.67;;;5.00;65.10;;;;;;4998304;28;20116;-88
2023/12/03 01:18:43;;;;;;;4.13;2.22;;;5.10;65.30;;;;;;4993260;28;20049;-87
2023/12/03 01:21:09;;;;;;;4.40;2.33;;;5.10;65.30;;;;;;4993491;28;20098;-84
2023/12/03 01:23:36;;;;;;;4.38;2.45;;;5.10;65.30;;;;;;5004590;28;20037;-85
2023/12/03 01:26:04;;;;;;;4.53;2.38;;;5.10;65.30;;;;;;4991417;28;20034;-86
2023/12/03 01:28:30;;;;;;;4.15;2.30;;;5.10;65.40;;;;;;4989143;28;20065;-87
2023/12/03 01:31:01;;;;;;;4.03;2.72;;;5.10;65.40;;;;;;4991057;28;20042;-86
2023/12/03 01:33:27;;;;;;;6.07;2.65;;;5.20;65.70;;;;;;4988758;28;20029;-85
2023/12/03 01:35:56;;;;;;;3.90;2.47;;;5.20;65.70;;;;;;5001655;28;20038;-86
2023/12/03 01:38:23;;;;;;;3.42;2.17;;;5.20;65.30;;;;;;4985929;28;20037;-87
2023/12/03 01:40:53;;;;;;;4.13;2.33;;;5.20;66.30;;;;;;4993645;28;20113;-87
2023/12/03 01:43:20;;;;;;;4.93;2.55;;;5.30;66.50;;;;;;4988461;28;20379;-85
2023/12/03 01:45:48;;;;;;;2.72;2.40;;;5.30;66.10;;;;;;5002350;28;20102;-85
2023/12/03 01:48:18;;;;;;;3.80;1.80;;;5.30;66.10;;;;;;5008108;28;20050;-87
2023/12/03 01:50:45;;;;;;;3.72;2.10;;;5.30;66.10;;;;;;4994492;28;20053;-87
2023/12/03 01:53:11;;;;;;;3.55;1.95;;;5.30;66.20;;;;;;4993895;28;20030;-87
2023/12/03 01:55:38;;;;;;;2.85;1.80;;;5.30;66.20;;;;;;4989358;28;20060;-87
2023/12/03 01:58:07;;;;;;;2.97;2.60;;;5.30;66.30;;;;;;4989854;28;20062;-88
2023/12/03 02:00:38;;;;;;;3.53;1.73;;;5.30;66.30;;;;;;5010808;28;20035;-88
2023/12/03 02:03:10;;;;;;;5.47;2.00;;;5.30;66.40;;;;;;4988264;28;20038;-88
2023/12/03 02:05:37;;;;;;;2.47;1.50;;;5.40;66.50;;;;;;4984673;28;20026;-87
2023/12/03 02:08:05;;;;;;;1.70;1.58;;;5.40;66.60;;;;;;4988628;28;20060;-87
2023/12/03 02:10:32;;;;;;;3.67;1.95;;;5.40;66.60;;;;;;5002228;28;20065;-86
2023/12/03 02:12:58;;;;;;;4.38;1.88;;;5.40;66.60;;;;;;5000904;28;20052;-85
2023/12/03 02:15:24;;;;;;;4.57;1.98;;;5.40;66.60;;;;;;4986595;28;20023;-85
2023/12/03 02:17:51;;;;;;;3.30;1.85;;;5.40;66.70;;;;;;4987298;28;20042;-84
2023/12/03 02:20:17;;;;;;;2.45;1.88;;;5.40;66.70;;;;;;4984991;28;20034;-84
2023/12/03 02:23:00;;;;;;;4.18;1.83;;;5.50;66.90;;;;;;4987685;28;20033;-86
2023/12/03 02:25:28;;;;;;;3.17;1.30;;;5.50;66.90;;;;;;4989180;28;20037;-86
2023/12/03 02:27:54;;;;;;;3.40;1.73;;;5.50;66.90;;;;;;4985611;28;20384;-86
2023/12/03 02:30:23;;;;;;;4.15;1.65;;;5.40;66.70;;;;;;4980870;28;20082;-85
2023/12/03 02:32:49;;;;;;;4.43;1.63;;;5.50;66.90;;;;;;4988513;28;20515;-83
2023/12/03 02:35:16;;;;;;;3.45;1.35;;;5.50;67.00;;;;;;4989636;28;20037;-86
2023/12/03 02:37:43;;;;;;;3.42;1.67;;;5.40;66.80;;;;;;4990301;28;20041;-86
2023/12/03 02:40:09;;;;;;;3.50;1.92;;;5.40;66.80;;;;;;4984188;28;20385;-85
2023/12/03 02:42:36;;;;;;;5.00;1.40;;;5.40;66.80;;;;;;4992928;28;20081;-86
2023/12/03 02:45:03;;;;;;;3.28;1.35;;;5.40;66.80;;;;;;4988228;28;20038;-88
2023/12/03 02:47:30;;;;;;;2.70;1.15;;;5.40;66.90;;;;;;5000776;28;20050;-87
2023/12/03 02:49:57;;;;;;;4.03;1.90;;;5.30;66.70;;;;;;5008970;28;20068;-86
2023/12/03 02:52:23;;;;;;;3.28;1.35;;;5.30;66.70;;;;;;4992559;28;20030;-87
2023/12/03 02:54:51;;;;;;;3.22;1.38;;;5.30;66.70;;;;;;5007562;28;20105;-83
2023/12/03 02:57:19;;;;;;;2.15;1.52;;;5.30;66.70;;;;;;5009455;28;20034;-82
2023/12/03 02:59:45;;;;;;;4.28;1.70;;;5.30;66.70;;;;;;5010048;28;20033;-84
2023/12/03 03:02:14;;;;;;;1.75;1.15;;;5.30;66.80;;;;;;4996472;28;20030;-85
2023/12/03 03:04:42;;;;;;;1.90;1.50;;;5.20;66.60;;;;;;5010774;28;20078;-82
2023/12/03 03:07:11;;;;;;;2.70;1.33;;;5.20;66.60;;;;;;5005621;28;20038;-85
2023/12/03 03:09:37;;;;;;;2.10;1.30;;;5.20;66.70;;;;;;4999926;28;20125;-85
2023/12/03 03:12:05;;;;;;;2.05;1.30;;;5.20;66.70;;;;;;4994003;28;20041;-84
2023/12/03 03:14:32;;;;;;;2.22;1.20;;;5.10;66.50;;;;;;5010812;28;20060;-85
2023/12/03 03:16:59;;;;;;;1.75;1.33;;;5.10;66.50;;;;;;4995485;28;20033;-85
2023/12/03 03:19:26;;;;;;;1.83;1.58;;;5.10;66.50;;;;;;5009434;28;20029;-83
2023/12/03 03:21:52;;;;;;;2.40;1.33;;;5.10;66.50;;;;;;5009049;28;20117;-83
2023/12/03 03:24:18;;;;;;;2.65;1.65;;;5.10;66.50;;;;;;5007394;28;20037;-84
2023/12/03 03:26:44;;;;;;;2.15;1.33;;;5.10;66.50;;;;;;5014676;28;20038;-84
2023/12/03 03:29:12;;;;;;;2.90;1.30;;;5.10;66.60;;;;;;5007468;28;20038;-84
2023/12/03 03:31:40;;;;;;;2.97;1.50;;;5.00;66.40;;;;;;5007063;28;20288;-82
2023/12/03 03:34:11;;;;;;;3.22;1.80;;;5.10;66.60;;;;;;4992580;28;20507;-85
2023/12/03 03:36:37;;;;;;;3.42;1.38;;;5.10;66.60;;;;;;5016081;28;20807;-83
2023/12/03 03:39:03;;;;;;;1.55;1.27;;;5.00;66.40;;;;;;5014225;28;20069;-82
2023/12/03 03:41:29;;;;;;;1.67;1.25;;;5.00;66.40;;;;;;5013358;28;20026;-84
2023/12/03 03:43:55;;;;;;;2.05;1.50;;;5.10;66.60;;;;;;5013142;28;20033;-84
2023/12/03 03:46:23;;;;;;;1.77;1.48;;;5.00;66.40;;;;;;5018561;28;20393;-84
2023/12/03 03:48:48;;;;;;;2.35;1.52;;;5.00;66.40;;;;;;5013196;28;20038;-83
2023/12/03 03:51:15;;;;;;;1.90;1.65;;;5.10;66.60;;;;;;4992608;28;20117;-81
2023/12/03 03:53:44;;;;;;;1.60;1.20;;;5.00;66.50;;;;;;5015109;28;20490;-81
2023/12/03 03:56:11;;;;;;;2.00;1.27;;;5.10;66.70;;;;;;5013274;28;20580;-81
2023/12/03 03:58:37;;;;;;;2.30;1.50;;;5.10;66.60;;;;;;5001290;28;20037;-82
2023/12/03 04:01:07;;;;;;;1.73;1.30;;;5.10;66.70;;;;;;5011529;28;20048;-81
2023/12/03 04:03:36;;;;;;;1.70;1.02;;;5.10;66.70;;;;;;5011702;28;20167;-83
2023/12/03 04:06:07;;;;;;;1.38;1.20;;;5.00;66.50;;;;;;5005133;28;20034;-82
2023/12/03 04:08:33;;;;;;;1.88;1.17;;;5.10;66.70;;;;;;4988290;28;20093;-83
2023/12/03 04:11:04;;;;;;;1.15;1.05;;;5.10;66.60;;;;;;5012418;28;20373;-83
2023/12/03 04:13:32;;;;;;;1.90;1.15;;;5.10;66.70;;;;;;5008727;28;20085;-85
2023/12/03 04:16:00;;;;;;;1.52;1.33;;;5.10;66.60;;;;;;5005904;28;20071;-84
2023/12/03 04:18:27;;;;;;;2.10;1.10;;;5.10;66.60;;;;;;5012911;28;20053;-85
2023/12/03 04:20:54;;;;;;;1.33;1.15;;;5.10;66.70;;;;;;4993485;28;20025;-85
2023/12/03 04:23:22;;;;;;;1.75;1.48;;;5.10;66.60;;;;;;5011610;28;20037;-83
2023/12/03 04:25:48;;;;;;;2.25;1.30;;;5.10;66.70;;;;;;5010962;28;20087;-83
2023/12/03 04:28:13;;;;;;;2.60;1.60;;;5.10;66.70;;;;;;4993691;28;20034;-83
2023/12/03 04:30:43;;;;;;;1.65;1.40;;;5.10;66.70;;;;;;5008531;28;20030;-83
2023/12/03 04:33:09;;;;;;;2.75;1.40;;;5.10;66.70;;;;;;5011603;28;20064;-82
2023/12/03 04:35:38;;;;;;;1.80;1.30;;;5.10;66.70;;;;;;5010653;28;20033;-83
2023/12/03 04:38:04;;;;;;;2.80;1.50;;;5.10;66.70;;;;;;5010164;28;20041;-85
2023/12/03 04:40:31;;;;;;;1.42;1.30;;;5.10;66.70;;;;;;5011482;28;20030;-83
2023/12/03 04:42:58;;;;;;;1.98;1.35;;;5.10;66.70;;;;;;5009255;28;20555;-81
2023/12/03 04:45:25;;;;;;;2.47;1.58;;;5.10;66.70;;;;;;4994019;28;20080;-84
2023/12/03 04:47:52;;;;;;;3.60;1.58;;;5.10;66.80;;;;;;4996551;28;20070;-82
2023/12/03 04:50:20;;;;;;;1.88;1.35;;;5.10;66.80;;;;;;4991197;28;20037;-84
2023/12/03 04:52:46;;;;;;;1.60;1.50;;;5.10;66.80;;;;;;4990702;28;20038;-85
2023/12/03 04:55:15;;;;;;;1.58;1.30;;;5.10;66.80;;;;;;4993942;28;20034;-84
2023/12/03 04:57:41;;;;;;;1.35;1.20;;;5.10;66.80;;;;;;4996665;28;20034;-83
2023/12/03 05:00:11;;;;;;;2.35;1.33;;;5.10;66.80;;;;;;5001196;28;20460;-85
2023/12/03 05:02:37;;;;;;;1.90;1.13;;;5.10;66.80;;;;;;4994153;28;20038;-85
2023/12/03 05:05:08;;;;;;;2.85;1.65;;;5.10;66.80;;;;;;4993719;28;20029;-84
2023/12/03 05:07:43;;;;;;;1.52;1.27;;;5.10;66.80;;;;;;4988888;28;20041;-84
2023/12/03 05:10:11;;;;;;;1.80;1.50;;;5.10;66.80;;;;;;4985326;28;20510;-85
2023/12/03 05:12:38;;;;;;;2.08;1.58;;;5.10;66.80;;;;;;4958951;28;20030;-86
2023/12/03 05:15:05;;;;;;;1.23;1.13;;;5.10;66.80;;;;;;4987405;28;20026;-82
2023/12/03 05:17:33;;;;;;;1.55;1.40;;;5.10;66.80;;;;;;4987573;28;20404;-82
2023/12/03 05:19:59;;;;;;;2.40;1.70;;;5.10;66.80;;;;;;4989974;28;20064;-82
2023/12/03 05:22:25;;;;;;;1.48;1.10;;;5.10;66.80;;;;;;4989694;28;20026;-81
2023/12/03 05:24:51;;;;;;;2.58;1.40;;;5.10;66.90;;;;;;4988199;28;20508;-83
2023/12/03 05:27:18;;;;;;;2.63;1.40;;;5.10;66.90;;;;;;4990786;28;20031;-83
2023/12/03 05:29:45;;;;;;;1.38;1.25;;;5.10;66.90;;;;;;4991748;28;20061;-83
2023/12/03 05:32:11;;;;;;;2.63;1.20;;;5.10;66.90;;;;;;4989302;28;20038;-82
2023/12/03 05:34:42;;;;;;;2.75;1.27;;;5.10;66.90;;;;;;4992493;28;20038;-86
2023/12/03 05:37:08;;;;;;;2.80;2.05;;;5.10;66.90;;;;;;4994885;28;20053;-86
2023/12/03 05:39:35;;;;;;;2.22;1.63;;;5.10;66.90;;;;;;4979559;28;20026;-86
2023/12/03 05:42:01;;;;;;;2.20;1.58;;;5.10;66.90;;;;;;4966448;28;20109;-84
2023/12/03 05:44:27;;;;;;;3.92;1.60;;;5.10;67.00;;;;;;4995504;28;20086;-86
2023/12/03 05:46:53;;;;;;;2.92;1.60;;;5.10;66.90;;;;;;5006139;28;20049;-85
2023/12/03 05:49:19;;;;;;;1.35;1.00;;;5.10;67.00;;;;;;5010650;28;20037;-85
2023/12/03 05:51:45;;;;;;;2.55;1.45;;;5.10;67.00;;;;;;5015747;28;20115;-84
2023/12/03 05:54:13;;;;;;;2.28;1.60;;;5.10;66.90;;;;;;5008582;28;20237;-84
2023/12/03 05:56:39;;;;;;;2.28;1.38;;;5.10;67.00;;;;;;5007605;28;20467;-84
2023/12/03 05:59:08;;;;;;;1.85;1.30;;;5.10;67.50;;;;;;5006543;28;20061;-82
2023/12/03 06:01:34;;;;;;;2.60;1.85;;;5.10;66.90;;;;;;5003389;28;20541;-86
2023/12/03 06:04:06;;;;;;;4.10;1.50;;;5.10;66.90;;;;;;5003811;28;20073;-85
2023/12/03 06:06:36;;;;;;;1.88;1.30;;;5.10;66.90;;;;;;5003555;28;20034;-84
2023/12/03 06:09:04;;;;;;;3.00;1.50;;;5.20;67.10;;;;;;5005618;28;20034;-84
2023/12/03 06:11:32;;;;;;;2.22;1.52;;;5.10;66.90;;;;;;4983269;28;20038;-81
2023/12/03 06:13:59;;;;;;;2.20;1.38;;;5.20;67.10;;;;;;5001566;28;20037;-83
2023/12/03 06:16:29;;;;;;;1.50;1.15;;;5.20;67.10;;;;;;4987402;28;20053;-85
2023/12/03 06:18:58;;;;;;;1.83;1.42;;;5.20;67.20;;;;;;4987554;28;20108;-84
2023/12/03 06:21:24;;;;;;;1.70;1.30;;;5.20;67.20;;;;;;5004073;28;20157;-84
2023/12/03 06:23:52;;;;;;;1.45;1.35;;;5.20;67.20;;;;;;4988233;28;20038;-84
2023/12/03 06:26:18;;;;;;;4.07;1.83;;;5.20;67.20;;;;;;5006427;28;20712;-84
2023/12/03 06:28:43;;;;;;;1.85;1.48;;;5.20;67.20;;;;;;4987117;28;20107;-85
2023/12/03 06:31:23;;;;;;;1.58;1.30;;;5.20;67.20;;;;;;5004634;28;20057;-84
2023/12/03 06:33:49;;;;;;;2.15;1.17;;;5.20;67.20;;;;;;4988847;28;20030;-83
2023/12/03 06:36:22;;;;;;;4.40;1.75;;;5.20;67.20;;;;;;4983501;28;20642;-83
2023/12/03 06:38:59;;;;;;;2.05;1.50;;;5.20;67.20;;;;;;4984640;28;20057;-83
2023/12/03 06:41:28;;;;;;;1.92;1.63;;;5.20;67.30;;;;;;5006482;28;20053;-83
2023/12/03 06:43:56;;;;;;;2.90;2.03;;;5.20;67.30;;;;;;5005912;28;20038;-84
2023/12/03 06:46:23;;;;;;;2.45;1.48;;;5.20;67.30;;;;;;5002857;28;20052;-84
2023/12/03 06:48:50;;;;;;;1.73;1.42;;;5.20;67.30;;;;;;4987555;28;20496;-84
2023/12/03 06:51:16;;;;;;;1.77;1.60;;;5.30;67.50;;;;;;5002044;28;20038;-85
2023/12/03 06:53:43;;;;;;;4.13;1.65;;;5.20;67.30;;;;;;4990436;28;20041;-81
2023/12/03 06:56:11;;;;;;;1.92;1.63;;;5.20;67.30;;;;;;4993799;28;20376;-83
2023/12/03 06:58:37;;;;;;;2.70;1.60;;;5.30;67.50;;;;;;4987724;28;20030;-82
2023/12/03 07:01:03;;;;;;;1.75;1.60;;;5.30;67.50;;;;;;4995821;28;20023;-87
2023/12/03 07:03:30;;;;;;;3.05;1.67;;;5.30;67.50;;;;;;4993416;28;20037;-85
2023/12/03 07:05:59;;;;;;;3.03;1.60;;;5.30;67.50;;;;;;4997281;28;20101;-85
2023/12/03 07:08:25;;;;;;;1.88;1.55;;;5.30;67.50;;;;;;4993741;28;20167;-85
2023/12/03 07:10:51;;;;;;;1.77;1.67;;;5.40;67.70;;;;;;5000481;28;20037;-86
2023/12/03 07:13:17;;;;;;;3.00;2.17;;;5.30;67.50;;;;;;5018679;28;20037;-85
2023/12/03 07:15:44;;;;;;;2.10;1.90;;;5.40;67.80;;;;;;5008608;28;20023;-85
2023/12/03 07:18:14;;;;;;;3.47;2.38;;;5.40;67.80;;;;;;5010360;28;20043;-87
2023/12/03 07:20:41;;;;;;;5.53;2.55;;;5.40;67.80;;;;;;5014612;28;20026;-86
2023/12/03 07:23:08;;;;;;;2.42;2.08;;;5.40;67.80;;;;;;5012880;28;20026;-91
2023/12/03 07:25:38;;;;;;;2.72;2.20;;;5.40;67.80;;;;;;5016795;28;20094;-85
2023/12/03 07:28:05;;;;;;;2.55;2.22;;;5.40;67.80;;;;;;5011416;28;20029;-85
2023/12/03 07:30:32;;;;;;;2.83;2.30;;;5.40;67.80;;;;;;4992091;28;20038;-85
2023/12/03 07:32:58;;;;;;;3.08;2.13;;;5.40;67.80;;;;;;4993184;28;20419;-87
2023/12/03 07:35:26;;;;;;;2.42;2.17;;;5.40;67.90;;;;;;4993859;28;20030;-84
2023/12/03 07:37:53;;;;;;;2.10;1.90;;;5.40;67.90;;;;;;5009664;28;20263;-84
2023/12/03 07:40:22;;;;;;;2.50;1.70;;;5.40;67.90;;;;;;5000897;28;20038;-91
2023/12/03 07:42:50;;;;;;;2.13;1.92;;;5.40;67.90;;;;;;4997589;28;20042;-84
2023/12/03 07:45:31;;;;;;;2.63;1.80;;;5.50;68.20;;;;;;5001249;28;20045;-82
2023/12/03 07:48:00;;;;;;;2.20;2.00;;;5.50;68.40;;;;;;5009086;28;20479;-80
2023/12/03 07:50:26;;;;;;;3.47;1.98;;;5.60;68.50;;;;;;5014375;28;20027;-81
2023/12/03 07:52:52;;;;;;;4.32;2.00;;;5.70;68.70;;;;;;4978950;28;20344;-82
2023/12/03 07:55:17;;;;;;;2.70;2.03;;;5.70;68.70;;;;;;4985275;28;20536;-84
2023/12/03 07:57:43;;;;;;;4.25;2.20;;;5.70;68.70;;;;;;4985131;28;20065;-83
2023/12/03 08:00:10;;;;;;;4.30;2.08;;;5.70;68.70;;;;;;4998907;28;20033;-81
2023/12/03 08:02:38;;;;;;;4.13;1.73;;;5.80;69.00;;;;;;4983898;28;20526;-81
2023/12/03 08:05:09;;;;;;;3.03;2.30;;;5.80;69.00;;;;;;4984824;28;20097;-86
2023/12/03 08:07:35;;;;;;;3.35;1.90;;;5.80;69.00;;;;;;4985052;28;20120;-84
2023/12/03 08:10:02;;;;;;;3.03;1.85;;;5.80;69.00;;;;;;4985554;28;20054;-84
2023/12/03 08:12:29;;;;;;;1.52;1.42;;;5.80;69.00;;;;;;4988929;28;20149;-85
2023/12/03 08:14:55;;;;;;;2.47;2.00;;;5.80;69.00;;;;;;5000024;28;20224;-87
2023/12/03 08:17:25;;;;;;;2.92;1.90;;;5.80;69.10;;;;;;5003056;28;20393;-86
2023/12/03 08:19:51;;;;;;;2.45;2.05;;;5.80;69.10;;;;;;4986019;28;20034;-87
2023/12/03 08:22:17;;;;;;;2.75;1.73;;;5.90;69.30;;;;;;4970856;28;20504;-84
2023/12/03 08:24:45;;;;;;;5.32;2.08;;;5.80;69.20;;;;;;4988742;28;20026;-86
2023/12/03 08:27:11;;;;;;;3.08;1.83;;;5.90;69.40;;;;;;4988891;28;20128;-84
2023/12/03 08:29:38;;;;;;;2.85;2.10;;;5.90;69.40;;;;;;4970216;28;20093;-85
2023/12/03 08:32:09;;;;;;;2.88;1.98;;;5.90;69.50;;;;;;4988101;28;20053;-84
2023/12/03 08:34:35;;;;;;;2.90;1.65;;;5.90;69.50;;;;;;4984809;28;20518;-85
2023/12/03 08:37:02;;;;;;;3.50;1.80;;;5.90;69.50;;;;;;4988155;28;20050;-86
2023/12/03 08:39:31;;;;;;;3.60;2.08;;;5.90;69.50;;;;;;4968906;28;20042;-83
2023/12/03 08:41:59;;;;;;;4.35;2.58;;;5.90;69.50;;;;;;4984955;28;20496;-84
2023/12/03 08:44:26;;;;;;;5.13;2.05;;;6.00;69.70;;;;;;4998383;28;20032;-84
2023/12/03 08:46:52;;;;;;;3.53;2.22;;;6.00;69.70;;;;;;4985932;28;20050;-84
2023/12/03 08:49:19;;;;;;;3.45;1.90;;;6.00;69.70;;;;;;4987263;28;20042;-84
2023/12/03 08:51:45;;;;;;;3.15;1.92;;;6.00;69.70;;;;;;5007631;28;20057;-85
2023/12/03 08:54:11;;;;;;;3.00;2.00;;;6.10;69.90;;;;;;4990344;28;20368;-85
2023/12/03 08:56:37;;;;;;;2.42;2.15;;;6.10;69.90;;;;;;5006577;28;20034;-83
2023/12/03 08:59:03;;;;;;;2.40;2.20;;;6.10;69.90;;;;;;5006660;28;20036;-84
2023/12/03 09:01:29;;;;;;;2.38;1.95;;;6.10;69.90;;;;;;5005641;28;20080;-85
2023/12/03 09:03:55;;;;;;;2.63;2.05;;;6.10;69.90;;;;;;5009326;28;20030;-90
2023/12/03 09:06:22;;;;;;;3.00;2.35;;;6.10;69.90;;;;;;5004992;28;20052;-89
2023/12/03 09:08:47;;;;;;;3.28;2.65;;;6.20;70.10;;;;;;4985872;28;20034;-89
2023/12/03 09:11:13;;;;;;;2.83;2.45;;;6.20;70.10;;;;;;4995637;28;20034;-86
2023/12/03 09:13:40;;;;;;;2.97;2.50;;;6.20;70.10;;;;;;5007494;28;20042;-89
2023/12/03 09:16:07;;;;;;;3.22;2.50;;;6.30;70.30;;;;;;4975510;28;20056;-87
2023/12/03 09:18:38;;;;;;;3.22;2.75;;;6.30;70.30;;;;;;5008634;28;20084;-87
2023/12/03 09:21:12;;;;;;;3.10;2.80;;;6.30;70.30;;;;;;5008421;28;20530;-87
2023/12/03 09:23:39;;;;;;;3.67;2.45;;;6.30;70.30;;;;;;5015754;28;20161;-85
2023/12/03 09:26:08;;;;;;;3.05;2.75;;;6.30;70.30;;;;;;5009785;28;20030;-89
2023/12/03 09:28:35;;;;;;;3.88;2.65;;;6.30;70.30;;;;;;4977958;28;20107;-90
2023/12/03 09:31:23;;;;;;;3.92;2.80;;;6.40;70.40;;;;;;5000342;28;20092;-93
2023/12/03 09:33:49;;;;;;;3.63;2.40;;;6.40;70.50;;;;;;4983899;28;20049;-94
2023/12/03 09:36:15;;;;;;;3.28;2.80;;;6.50;70.60;;;;;;5018823;28;20042;-92
2023/12/03 09:38:44;;;;;;;3.08;2.33;;;6.50;70.60;;;;;;5012258;28;20030;-89
2023/12/03 09:41:13;;;;;;;2.63;2.28;;;6.50;70.60;;;;;;4980820;28;20498;-88
2023/12/03 09:43:42;;;;;;;2.72;2.53;;;6.60;70.70;;;;;;5016959;28;20073;-90
2023/12/03 09:46:13;;;;;;;3.50;2.65;;;6.60;70.70;;;;;;4993967;28;20034;-88
2023/12/03 09:48:43;;;;;;;2.85;2.08;;;6.70;70.80;;;;;;4992764;28;20335;-89
2023/12/03 09:51:11;;;;;;;2.85;2.00;;;6.70;70.80;;;;;;5005838;28;20068;-87
2023/12/03 09:53:46;;;;;;;2.95;2.30;;;6.80;71.00;;;;;;5005567;28;20038;-88
2023/12/03 09:56:13;;;;;;;1.70;1.60;;;6.80;71.00;;;;;;5011470;28;20221;-85
2023/12/03 09:58:44;;;;;;;3.15;2.00;;;6.80;70.90;;;;;;5011921;28;20034;-87
2023/12/03 10:01:15;;;;;;;1.90;1.70;;;6.80;70.90;;;;;;5010293;28;20037;-92
2023/12/03 10:03:41;;;;;;;3.63;1.85;;;6.90;71.10;;;;;;5006628;28;20037;-90
2023/12/03 10:06:11;;;;;;;2.08;1.40;;;7.00;71.40;;;;;;4969164;28;20052;-91
2023/12/03 10:08:41;;;;;;;2.78;1.58;;;7.00;71.40;;;;;;5010065;28;20025;-91
2023/12/03 10:11:13;;;;;;;3.42;1.60;;;7.10;71.60;;;;;;5006919;28;20097;-94
2023/12/03 10:13:39;;;;;;;2.05;1.30;;;7.10;71.50;;;;;;5006417;28;20037;-92
2023/12/03 10:16:12;;;;;;;1.40;1.00;;;7.20;71.60;;;;;;4989305;28;20498;-91
2023/12/03 10:18:38;;;;;;;3.22;1.17;;;7.20;71.60;;;;;;4989809;28;20109;-91
2023/12/03 10:21:06;;;;;;;1.63;1.20;;;7.30;71.70;;;;;;4990728;28;20037;-94
2023/12/03 10:23:39;;;;;;;1.00;1.00;;;7.30;71.70;;;;;;4989761;28;20037;-92
2023/12/03 10:26:15;;;;;;;2.05;0.98;;;7.40;71.90;;;;;;5006130;28;20057;-91
2023/12/03 10:28:41;;;;;;;1.17;0.90;;;7.40;71.90;;;;;;5006909;28;20391;-90
2023/12/03 10:31:15;;;;;;;3.92;1.00;;;7.50;72.00;;;;;;4988901;28;20030;-91
2023/12/03 10:33:43;;;;;;;1.92;1.10;;;7.50;72.00;;;;;;5003041;28;20029;-90
2023/12/03 10:36:10;;;;;;;0.90;0.90;;;7.50;71.90;;;;;;4990307;28;20137;-89
2023/12/03 10:38:41;;;;;;;1.17;0.88;;;7.60;72.10;;;;;;5005159;28;20066;-89
2023/12/03 10:41:09;;;;;;;0.88;0.80;;;7.60;72.10;;;;;;5005703;28;20037;-89
2023/12/03 10:43:38;;;;;;;0.85;0.60;;;7.60;72.00;;;;;;5015168;28;20033;-83
2023/12/03 10:46:08;;;;;;;2.88;0.95;;;7.70;72.30;;;;;;4983147;28;20038;-91
2023/12/03 10:48:35;;;;;;;1.35;0.98;;;7.70;72.20;;;;;;4993707;28;20084;-93
2023/12/03 10:51:09;;;;;;;1.45;1.10;;;7.70;72.10;;;;;;4993923;28;20049;-94
2023/12/03 10:53:37;;;;;;;4.22;0.93;;;7.80;72.30;;;;;;5013416;28;20030;-95
2023/12/03 10:56:07;;;;;;;1.73;0.90;;;7.80;72.20;;;;;;5016408;28;20033;-96
2023/12/03 10:58:38;;;;;;;1.77;0.95;;;7.90;72.40;;;;;;5015972;28;20030;-95
2023/12/03 11:01:13;;;;;;;1.58;0.90;;;7.90;72.30;;;;;;5019375;28;20138;-93
2023/12/03 11:03:56;;;;;;;2.05;1.40;;;7.90;72.30;;;;;;5014612;28;20586;-92
2023/12/03 11:06:24;;;;;;;2.55;1.33;;;8.00;72.40;;;;;;4993253;28;20081;-93
2023/12/03 11:08:53;;;;;;;1.55;1.45;;;8.00;72.30;;;;;;4992653;28;20038;-92
2023/12/03 11:11:22;;;;;;;1.52;1.42;;;8.00;72.30;;;;;;4981622;28;20092;-92
2023/12/03 11:13:51;;;;;;;1.15;1.05;;;8.10;72.50;;;;;;4998907;28;20391;-92
2023/12/03 11:16:18;;;;;;;1.45;1.35;;;8.10;72.50;;;;;;4997079;28;20038;-94
2023/12/03 11:18:58;;;;;;;3.80;1.70;;;8.20;72.60;;;;;;4997946;28;20042;-96
2023/12/03 11:21:56;;;;;;;2.95;1.70;;;8.30;72.70;;;;;;4996878;28;20025;-96
2023/12/03 11:24:58;;;;;;;2.30;1.40;;;8.30;72.70;;;;;;5014429;28;20083;-95
2023/12/03 11:27:25;;;;;;;2.97;1.60;;;8.40;72.70;;;;;;5008502;28;20044;-93
2023/12/03 11:29:53;;;;;;;1.20;1.10;;;8.50;72.70;;;;;;5014956;28;20088;-96
2023/12/03 11:32:20;;;;;;;1.50;1.40;;;8.70;72.90;;;;;;5019079;28;20029;-91
2023/12/03 11:35:07;;;;;;;2.42;1.63;;;8.70;72.70;;;;;;5013057;28;20480;-89
2023/12/03 11:37:34;;;;;;;2.65;1.42;;;8.80;72.70;;;;;;4984582;28;20289;-94
2023/12/03 11:40:33;;;;;;;1.52;1.40;;;8.90;72.70;;;;;;4978954;28;20064;-90
2023/12/03 11:42:59;;;;;;;2.47;1.27;;;8.90;72.70;;;;;;5001453;28;20030;-89
2023/12/03 11:45:27;;;;;;;2.90;1.30;;;8.90;72.60;;;;;;5016141;28;20033;-92
2023/12/03 11:48:08;;;;;;;2.85;1.38;;;9.00;72.80;;;;;;5015263;28;20112;-92
2023/12/03 11:50:42;;;;;;;3.75;1.65;;;9.00;72.80;;;;;;5011379;28;20111;-91
2023/12/03 11:53:13;;;;;;;3.55;1.67;;;9.10;72.90;;;;;;5005715;28;20034;-89
2023/12/03 11:55:41;;;;;;;2.17;1.27;;;9.10;72.90;;;;;;5007994;28;20076;-89
2023/12/03 11:58:08;;;;;;;1.40;1.30;;;9.10;72.80;;;;;;5006824;28;20042;-88
2023/12/03 12:00:37;;;;;;;1.77;1.60;;;9.20;73.00;;;;;;4957401;28;20368;-95
2023/12/03 12:03:05;;;;;;;2.33;1.35;;;9.20;73.00;;;;;;5016165;28;20072;-91
2023/12/03 12:05:45;;;;;;;2.10;1.02;;;9.20;72.90;;;;;;5007105;28;20102;-90
2023/12/03 12:08:23;;;;;;;2.70;1.60;;;9.30;73.10;;;;;;5020399;28;20579;-93
2023/12/03 12:10:52;;;;;;;2.22;1.52;;;9.40;73.20;;;;;;5020174;28;20077;-94
2023/12/03 12:13:24;;;;;;;3.30;1.40;;;9.50;73.20;;;;;;5021636;28;20089;-95
2023/12/03 12:15:55;;;;;;;2.90;1.50;;;9.60;73.20;;;;;;5020309;28;20037;-89
2023/12/03 12:18:24;;;;;;;3.70;2.10;;;9.70;73.30;;;;;;5006000;28;20057;-89
2023/12/03 12:20:52;;;;;;;3.25;2.10;;;9.80;73.30;;;;;;4997792;28;20093;-88
2023/12/03 12:23:18;;;;;;;2.78;1.80;;;9.90;73.30;;;;;;4995712;28;20053;-94
2023/12/03 12:25:44;;;;;;;4.80;1.58;;;10.00;73.30;;;;;;5006565;28;20054;-93
2023/12/03 12:28:10;;;;;;;4.65;1.73;;;10.00;73.20;;;;;;5010567;28;20061;-92
2023/12/03 12:30:39;;;;;;;2.40;1.58;;;10.10;73.20;;;;;;4991381;28;20038;-93
2023/12/03 12:33:08;;;;;;;4.20;1.98;;;10.10;73.20;;;;;;4992317;28;20569;-92
2023/12/03 12:35:34;;;;;;;3.38;1.33;;;10.00;73.00;;;;;;5010370;28;20029;-90
2023/12/03 12:38:03;;;;;;;3.38;1.48;;;10.00;73.00;;;;;;5017690;28;20331;-92
2023/12/03 12:40:37;;;;;;;4.15;1.50;;;10.00;73.10;;;;;;5007043;28;20055;-92
2023/12/03 12:43:08;;;;;;;4.05;1.52;;;10.00;73.10;;;;;;5010004;28;20048;-91
2023/12/03 12:45:41;;;;;;;3.30;1.73;;;9.90;73.00;;;;;;5019124;28;20656;-88
2023/12/03 12:48:27;;;;;;;5.15;2.15;;;9.90;73.10;;;;;;5013007;28;20073;-90
2023/12/03 12:50:53;;;;;;;9.50;6.30;;;9.90;73.10;;;;;;5000760;28;20031;-93
2023/12/03 12:53:49;;;;;;;5.97;5.40;;;9.90;73.30;;;;;;5005131;28;20288;-90
2023/12/03 12:56:15;;;;;;;8.90;5.93;;;10.00;73.80;;;;;;4971363;28;20072;-91
2023/12/03 12:58:45;;;;;;;11.18;4.88;;;10.00;73.80;;;;;;4965050;28;20030;-89
2023/12/03 13:01:13;;;;;;;8.55;4.32;;;10.10;74.00;;;;;;5012172;28;20033;-89
2023/12/03 13:03:48;;;;;;;5.10;3.67;;;10.20;74.20;;;;;;4996125;28;20098;-90
2023/12/03 13:06:20;;;;;;;4.38;3.25;;;10.20;74.30;;;;;;4960276;28;20167;-90